sensor_id;sensor_type;location;lat;lon;timestamp;temperature;humidity
26021;DHT22;13798;48.858;9.092;2023-09-07T04:07:46;358.80;2329.60
26021;DHT22;13798;48.858;9.092;2023-09-07T04:10:11;358.80;2329.60
26021;DHT22;13798;48.858;9.092;2023-09-07T04:12:37;358.70;2329.60
26021;DHT22;13798;48.858;9.092;2023-09-07T04:15:03;358.80;2329.60
26021;DHT22;13798;48.858;9.092;2023-09-07T04:17:28;358.80;2329.60
26021;DHT22;13798;48.858;9.092;2023-09-07T04:19:54;358.60;2329.60
26021;DHT22;13798;48.858;9.092;2023-09-07T04:22:23;358.70;2329.60
26021;DHT22;13798;48.858;9.092;2023-09-07T04:24:51;358.50;2329.60
26021;DHT22;13798;48.858;9.092;2023-09-07T04:27:23;358.50;2329.60
26021;DHT22;13798;48.858;9.092;2023-09-07T04:34:59;358.90;2329.60
26021;DHT22;13798;48.858;9.092;2023-09-07T04:37:26;358.40;2329.60
26021;DHT22;13798;48.858;9.092;2023-09-07T04:39:53;358.50;2329.60
26021;DHT22;13798;48.858;9.092;2023-09-07T04:42:19;358.60;2329.60
26021;DHT22;13798;48.858;9.092;2023-09-07T04:44:45;358.60;2329.60
26021;DHT22;13798;48.858;9.092;2023-09-07T06:41:07;435.60;2355.20
26021;DHT22;13798;48.858;9.092;2023-09-07T06:43:34;436.00;2355.20
26021;DHT22;13798;48.858;9.092;2023-09-07T06:46:07;436.10;2355.20
26021;DHT22;13798;48.858;9.092;2023-09-07T06:48:33;436.00;2355.20
26021;DHT22;13798;48.858;9.092;2023-09-07T06:51:05;460.80;2380.80
26021;DHT22;13798;48.858;9.092;2023-09-07T06:53:32;460.80;2380.80
26021;DHT22;13798;48.858;9.092;2023-09-07T06:56:02;435.80;2355.20
26021;DHT22;13798;48.858;9.092;2023-09-07T06:58:28;436.10;2355.20
26021;DHT22;13798;48.858;9.092;2023-09-07T07:00:57;460.80;2380.80
26021;DHT22;13798;48.858;9.092;2023-09-07T07:03:26;436.10;2355.20
26021;DHT22;13798;48.858;9.092;2023-09-07T07:05:52;460.80;2380.80
26021;DHT22;13798;48.858;9.092;2023-09-07T07:08:17;461.00;2380.80
26021;DHT22;13798;48.858;9.092;2023-09-07T07:10:42;461.10;2380.80
26021;DHT22;13798;48.858;9.092;2023-09-07T07:13:08;461.20;2380.80
26021;DHT22;13798;48.858;9.092;2023-09-07T07:15:35;461.10;2380.80
26021;DHT22;13798;48.858;9.092;2023-09-07T07:18:01;461.40;2380.80
26021;DHT22;13798;48.858;9.092;2023-09-07T07:20:26;461.20;2380.80
26021;DHT22;13798;48.858;9.092;2023-09-07T07:22:52;461.30;2380.80
26021;DHT22;13798;48.858;9.092;2023-09-07T07:25:17;461.70;2380.80
26021;DHT22;13798;48.858;9.092;2023-09-07T07:27:43;486.50;2380.80
26021;DHT22;13798;48.858;9.092;2023-09-07T07:30:10;461.60;2380.80
26021;DHT22;13798;48.858;9.092;2023-09-07T07:32:36;461.40;2380.80
26021;DHT22;13798;48.858;9.092;2023-09-07T07:35:01;461.70;2380.80
26021;DHT22;13798;48.858;9.092;2023-09-07T07:37:27;486.40;2380.80
26021;DHT22;13798;48.858;9.092;2023-09-07T07:39:52;461.70;2380.80
26021;DHT22;13798;48.858;9.092;2023-09-07T07:42:24;461.70;2380.80
26021;DHT22;13798;48.858;9.092;2023-09-07T07:47:41;486.40;2380.80
26021;DHT22;13798;48.858;9.092;2023-09-07T07:50:37;486.40;2380.80
26021;DHT22;13798;48.858;9.092;2023-09-07T07:53:03;486.60;2380.80
26021;DHT22;13798;48.858;9.092;2023-09-07T07:58:49;487.20;2380.80
26021;DHT22;13798;48.858;9.092;2023-09-07T08:01:16;487.00;2380.80
26021;DHT22;13798;48.858;9.092;2023-09-07T08:04:00;487.30;2380.80
26021;DHT22;13798;48.858;9.092;2023-09-07T08:06:34;512.40;2380.80
26021;DHT22;13798;48.858;9.092;2023-09-07T08:09:02;512.50;2380.80
26021;DHT22;13798;48.858;9.092;2023-09-07T08:11:31;512.30;2380.80
26021;DHT22;13798;48.858;9.092;2023-09-07T08:14:07;512.20;2380.80
26021;DHT22;13798;48.858;9.092;2023-09-07T08:16:33;487.00;2380.80
26021;DHT22;13798;48.858;9.092;2023-09-07T08:18:59;512.30;2380.80
26021;DHT22;13798;48.858;9.092;2023-09-07T08:21:27;512.30;2380.80
26021;DHT22;13798;48.858;9.092;2023-09-07T08:24:02;512.70;2380.80
26021;DHT22;13798;48.858;9.092;2023-09-07T08:26:38;512.70;2380.80
26021;DHT22;13798;48.858;9.092;2023-09-07T08:29:11;512.30;2380.80
26021;DHT22;13798;48.858;9.092;2023-09-07T08:31:57;512.30;2380.80
26021;DHT22;13798;48.858;9.092;2023-09-07T08:34:24;512.50;2380.80
26021;DHT22;13798;48.858;9.092;2023-09-07T08:36:54;537.70;2406.40
26021;DHT22;13798;48.858;9.092;2023-09-07T08:39:23;512.60;2380.80
26021;DHT22;13798;48.858;9.092;2023-09-07T08:41:48;537.70;2406.40
26021;DHT22;13798;48.858;9.092;2023-09-07T08:44:16;537.70;2406.40
26021;DHT22;13798;48.858;9.092;2023-09-07T08:46:43;537.90;2406.40
26021;DHT22;13798;48.858;9.092;2023-09-07T08:49:10;538.10;2406.40
26021;DHT22;13798;48.858;9.092;2023-09-07T08:51:37;538.20;2406.40
26021;DHT22;13798;48.858;9.092;2023-09-07T08:54:03;538.10;2406.40
26021;DHT22;13798;48.858;9.092;2023-09-07T08:56:29;538.30;2406.40
26021;DHT22;13798;48.858;9.092;2023-09-07T08:58:55;538.20;2406.40
26021;DHT22;13798;48.858;9.092;2023-09-07T09:01:20;538.30;2406.40
26021;DHT22;13798;48.858;9.092;2023-09-07T09:03:48;538.40;2406.40
26021;DHT22;13798;48.858;9.092;2023-09-07T09:06:16;563.20;2432.00
26021;DHT22;13798;48.858;9.092;2023-09-07T09:08:46;538.50;2406.40
26021;DHT22;13798;48.858;9.092;2023-09-07T09:11:16;538.40;2406.40
26021;DHT22;13798;48.858;9.092;2023-09-07T09:13:43;563.30;2432.00
26021;DHT22;13798;48.858;9.092;2023-09-07T09:16:10;563.40;2432.00
26021;DHT22;13798;48.858;9.092;2023-09-07T09:18:36;563.80;2432.00
26021;DHT22;13798;48.858;9.092;2023-09-07T09:21:01;563.50;2432.00
26021;DHT22;13798;48.858;9.092;2023-09-07T09:23:34;563.70;2432.00
26021;DHT22;13798;48.858;9.092;2023-09-07T09:26:01;563.70;2432.00
26021;DHT22;13798;48.858;9.092;2023-09-07T09:28:27;563.40;2432.00
26021;DHT22;13798;48.858;9.092;2023-09-07T09:30:53;563.80;2432.00
26021;DHT22;13798;48.858;9.092;2023-09-07T09:33:20;564.00;2432.00
26021;DHT22;13798;48.858;9.092;2023-09-07T09:35:47;588.80;2432.00
26021;DHT22;13798;48.858;9.092;2023-09-07T09:38:13;589.00;2432.00
26021;DHT22;13798;48.858;9.092;2023-09-07T09:40:38;589.10;2432.00
26021;DHT22;13798;48.858;9.092;2023-09-07T09:43:05;589.10;2432.00
26021;DHT22;13798;48.858;9.092;2023-09-07T09:45:31;589.00;2432.00
26021;DHT22;13798;48.858;9.092;2023-09-07T09:47:58;614.40;2432.00
26021;DHT22;13798;48.858;9.092;2023-09-07T09:50:27;589.30;2432.00
26021;DHT22;13798;48.858;9.092;2023-09-07T09:52:53;614.40;2432.00
26021;DHT22;13798;48.858;9.092;2023-09-07T09:55:19;614.60;2432.00
26021;DHT22;13798;48.858;9.092;2023-09-07T09:57:45;614.90;2432.00
26021;DHT22;13798;48.858;9.092;2023-09-07T10:00:11;614.80;2432.00
26021;DHT22;13798;48.858;9.092;2023-09-07T10:03:22;614.70;2432.00
26021;DHT22;13798;48.858;9.092;2023-09-07T10:05:50;614.70;2432.00
26021;DHT22;13798;48.858;9.092;2023-09-07T10:08:18;615.30;2432.00
26021;DHT22;13798;48.858;9.092;2023-09-07T10:10:47;615.30;2432.00
26021;DHT22;13798;48.858;9.092;2023-09-07T10:13:16;615.30;2432.00
26021;DHT22;13798;48.858;9.092;2023-09-07T10:16:03;640.00;2432.00
26021;DHT22;13798;48.858;9.092;2023-09-07T10:18:37;640.30;2432.00
26021;DHT22;13798;48.858;9.092;2023-09-07T10:21:04;640.70;2432.00
26021;DHT22;13798;48.858;9.092;2023-09-07T10:23:41;640.90;2432.00
26021;DHT22;13798;48.858;9.092;2023-09-07T10:28:36;665.70;2432.00
26021;DHT22;13798;48.858;9.092;2023-09-07T10:31:03;665.60;2432.00
26021;DHT22;13798;48.858;9.092;2023-09-07T10:33:30;665.90;2432.00
26021;DHT22;13798;48.858;9.092;2023-09-07T10:35:56;666.10;2432.00
26021;DHT22;13798;48.858;9.092;2023-09-07T10:38:22;666.30;2432.00
26021;DHT22;13798;48.858;9.092;2023-09-07T10:40:48;666.50;2432.00
26021;DHT22;13798;48.858;9.092;2023-09-07T10:43:14;666.30;2432.00
26021;DHT22;13798;48.858;9.092;2023-09-07T10:45:44;666.40;2432.00
26021;DHT22;13798;48.858;9.092;2023-09-07T10:48:10;691.50;2432.00
26021;DHT22;13798;48.858;9.092;2023-09-07T10:50:46;691.70;2432.00
26021;DHT22;13798;48.858;9.092;2023-09-07T10:53:13;691.70;2432.00
26021;DHT22;13798;48.858;9.092;2023-09-07T10:55:40;717.30;2432.00
26021;DHT22;13798;48.858;9.092;2023-09-07T10:58:06;717.50;2432.00
26021;DHT22;13798;48.858;9.092;2023-09-07T11:00:34;742.40;2432.00
26021;DHT22;13798;48.858;9.092;2023-09-07T11:03:07;717.70;2432.00
26021;DHT22;13798;48.858;9.092;2023-09-07T11:05:33;717.50;2432.00
26021;DHT22;13798;48.858;9.092;2023-09-07T11:08:03;768.60;2432.00
26021;DHT22;13798;48.858;9.092;2023-09-07T11:10:31;742.80;2432.00
26021;DHT22;13798;48.858;9.092;2023-09-07T11:12:57;742.60;2432.00
26021;DHT22;13798;48.858;9.092;2023-09-07T11:15:22;742.80;2432.00
26021;DHT22;13798;48.858;9.092;2023-09-07T11:17:48;742.60;2432.00
26021;DHT22;13798;48.858;9.092;2023-09-07T11:20:13;742.70;2432.00
26021;DHT22;13798;48.858;9.092;2023-09-07T11:22:38;742.50;2432.00
26021;DHT22;13798;48.858;9.092;2023-09-07T11:25:08;743.30;2432.00
26021;DHT22;13798;48.858;9.092;2023-09-07T11:27:34;768.20;2432.00
26021;DHT22;13798;48.858;9.092;2023-09-07T11:30:02;768.20;2432.00
26021;DHT22;13798;48.858;9.092;2023-09-07T11:32:33;768.00;2432.00
26021;DHT22;13798;48.858;9.092;2023-09-07T11:34:59;793.90;2432.00
26021;DHT22;13798;48.858;9.092;2023-09-07T11:37:25;819.50;2432.00
26021;DHT22;13798;48.858;9.092;2023-09-07T11:39:51;819.40;2432.00
26021;DHT22;13798;48.858;9.092;2023-09-07T11:42:17;794.40;2432.00
26021;DHT22;13798;48.858;9.092;2023-09-07T11:44:42;793.60;2432.00
26021;DHT22;13798;48.858;9.092;2023-09-07T11:47:08;819.70;2432.00
26021;DHT22;13798;48.858;9.092;2023-09-07T11:49:34;794.30;2432.00
26021;DHT22;13798;48.858;9.092;2023-09-07T11:51:59;768.70;2432.00
26021;DHT22;13798;48.858;9.092;2023-09-07T11:54:25;794.50;2432.00
26021;DHT22;13798;48.858;9.092;2023-09-07T11:56:50;844.90;2432.00
26021;DHT22;13798;48.858;9.092;2023-09-07T11:59:16;819.50;2432.00
26021;DHT22;13798;48.858;9.092;2023-09-07T12:01:44;819.30;2432.00
26021;DHT22;13798;48.858;9.092;2023-09-07T12:04:10;819.40;2432.00
26021;DHT22;13798;48.858;9.092;2023-09-07T12:06:36;819.40;2432.00
26021;DHT22;13798;48.858;9.092;2023-09-07T12:09:06;845.00;2432.00
26021;DHT22;13798;48.858;9.092;2023-09-07T12:11:35;845.60;2432.00
26021;DHT22;13798;48.858;9.092;2023-09-07T12:14:00;870.70;2432.00
26021;DHT22;13798;48.858;9.092;2023-09-07T12:16:26;845.60;2432.00
26021;DHT22;13798;48.858;9.092;2023-09-07T12:18:52;845.30;2432.00
26021;DHT22;13798;48.858;9.092;2023-09-07T12:21:18;845.20;2432.00
26021;DHT22;13798;48.858;9.092;2023-09-07T12:23:44;845.60;2432.00
26021;DHT22;13798;48.858;9.092;2023-09-07T12:26:09;870.60;2432.00
26021;DHT22;13798;48.858;9.092;2023-09-07T12:28:35;870.70;2432.00
26021;DHT22;13798;48.858;9.092;2023-09-07T12:31:01;896.20;2432.00
26021;DHT22;13798;48.858;9.092;2023-09-07T12:33:27;896.20;2432.00
26021;DHT22;13798;48.858;9.092;2023-09-07T12:35:55;896.30;2432.00
26021;DHT22;13798;48.858;9.092;2023-09-07T12:38:21;871.10;2432.00
26021;DHT22;13798;48.858;9.092;2023-09-07T12:40:50;871.00;2432.00
26021;DHT22;13798;48.858;9.092;2023-09-07T12:43:15;870.40;2432.00
26021;DHT22;13798;48.858;9.092;2023-09-07T12:45:41;870.40;2432.00
26021;DHT22;13798;48.858;9.092;2023-09-07T12:48:07;896.40;2432.00
26021;DHT22;13798;48.858;9.092;2023-09-07T12:50:32;921.80;2432.00
26021;DHT22;13798;48.858;9.092;2023-09-07T12:52:58;896.80;2432.00
26021;DHT22;13798;48.858;9.092;2023-09-07T12:55:23;896.70;2432.00
26021;DHT22;13798;48.858;9.092;2023-09-07T12:57:50;947.40;2432.00
26021;DHT22;13798;48.858;9.092;2023-09-07T13:00:15;922.30;2406.40
26021;DHT22;13798;48.858;9.092;2023-09-07T13:02:41;947.70;2406.40
26021;DHT22;13798;48.858;9.092;2023-09-07T13:05:07;896.90;2380.80
26021;DHT22;13798;48.858;9.092;2023-09-07T13:07:33;921.80;2406.40
26021;DHT22;13798;48.858;9.092;2023-09-07T13:10:03;947.30;2304.00
26021;DHT22;13798;48.858;9.092;2023-09-07T13:12:31;947.40;2278.40
26021;DHT22;13798;48.858;9.092;2023-09-07T13:14:56;896.90;2304.00
26021;DHT22;13798;48.858;9.092;2023-09-07T13:17:22;921.80;2380.80
26021;DHT22;13798;48.858;9.092;2023-09-07T13:19:47;947.30;2278.40
26021;DHT22;13798;48.858;9.092;2023-09-07T13:22:14;947.40;2227.20
26021;DHT22;13798;48.858;9.092;2023-09-07T13:24:39;947.60;2252.80
26021;DHT22;13798;48.858;9.092;2023-09-07T13:27:05;947.50;2227.20
26021;DHT22;13798;48.858;9.092;2023-09-07T13:29:32;947.40;2227.20
26021;DHT22;13798;48.858;9.092;2023-09-07T13:31:58;947.40;2176.00
26021;DHT22;13798;48.858;9.092;2023-09-07T13:34:24;921.80;2252.80
26021;DHT22;13798;48.858;9.092;2023-09-07T13:36:50;921.80;2278.40
26021;DHT22;13798;48.858;9.092;2023-09-07T13:39:16;947.40;2227.20
26021;DHT22;13798;48.858;9.092;2023-09-07T13:41:41;947.50;2252.80
26021;DHT22;13798;48.858;9.092;2023-09-07T13:44:07;947.30;2176.00
26021;DHT22;13798;48.858;9.092;2023-09-07T13:46:33;947.90;2150.40
26021;DHT22;13798;48.858;9.092;2023-09-07T13:48:58;973.00;2201.60
26021;DHT22;13798;48.858;9.092;2023-09-07T13:51:24;948.10;2099.20
26021;DHT22;13798;48.858;9.092;2023-09-07T13:54:00;948.10;2124.80
26021;DHT22;13798;48.858;9.092;2023-09-07T13:56:26;973.60;2099.20
26021;DHT22;13798;48.858;9.092;2023-09-07T13:58:51;972.90;2073.60
26021;DHT22;13798;48.858;9.092;2023-09-07T14:01:17;972.80;2124.80
26021;DHT22;13798;48.858;9.092;2023-09-07T14:03:42;947.90;2099.20
26021;DHT22;13798;48.858;9.092;2023-09-07T14:06:08;973.30;2099.20
26021;DHT22;13798;48.858;9.092;2023-09-07T14:08:33;948.10;2099.20
26021;DHT22;13798;48.858;9.092;2023-09-07T14:11:00;948.10;2048.00
26021;DHT22;13798;48.858;9.092;2023-09-07T14:13:25;947.90;2124.80
26021;DHT22;13798;48.858;9.092;2023-09-07T14:15:51;973.40;2099.20
26021;DHT22;13798;48.858;9.092;2023-09-07T14:18:17;973.00;2099.20
26021;DHT22;13798;48.858;9.092;2023-09-07T14:20:42;973.00;2073.60
26021;DHT22;13798;48.858;9.092;2023-09-07T14:23:07;947.90;2048.00
26021;DHT22;13798;48.858;9.092;2023-09-07T14:25:33;973.20;1996.80
26021;DHT22;13798;48.858;9.092;2023-09-07T14:27:58;948.10;2022.40
26021;DHT22;13798;48.858;9.092;2023-09-07T14:30:25;973.00;2022.40
26021;DHT22;13798;48.858;9.092;2023-09-07T14:32:50;973.00;1996.80
26021;DHT22;13798;48.858;9.092;2023-09-07T14:35:16;973.00;1996.80
26021;DHT22;13798;48.858;9.092;2023-09-07T14:37:42;948.00;2022.40
26021;DHT22;13798;48.858;9.092;2023-09-07T14:40:08;947.80;1996.80
26021;DHT22;13798;48.858;9.092;2023-09-07T14:42:34;973.00;1945.60
26021;DHT22;13798;48.858;9.092;2023-09-07T14:44:59;947.60;2022.40
26021;DHT22;13798;48.858;9.092;2023-09-07T14:47:28;948.00;1996.80
26021;DHT22;13798;48.858;9.092;2023-09-07T14:49:54;948.10;1971.20
26021;DHT22;13798;48.858;9.092;2023-09-07T14:52:19;947.90;1971.20
26021;DHT22;13798;48.858;9.092;2023-09-07T14:54:47;947.40;1996.80
26021;DHT22;13798;48.858;9.092;2023-09-07T14:57:13;947.40;1971.20
26021;DHT22;13798;48.858;9.092;2023-09-07T14:59:39;947.40;1971.20
26021;DHT22;13798;48.858;9.092;2023-09-07T15:02:08;948.00;1996.80
26021;DHT22;13798;48.858;9.092;2023-09-07T15:04:34;948.00;1945.60
26021;DHT22;13798;48.858;9.092;2023-09-07T15:07:00;947.70;1945.60
26021;DHT22;13798;48.858;9.092;2023-09-07T15:09:26;921.80;2022.40
26021;DHT22;13798;48.858;9.092;2023-09-07T15:11:51;947.40;1945.60
26021;DHT22;13798;48.858;9.092;2023-09-07T15:14:18;947.70;1945.60
26021;DHT22;13798;48.858;9.092;2023-09-07T15:16:44;947.40;1945.60
26021;DHT22;13798;48.858;9.092;2023-09-07T15:19:09;947.20;1996.80
26021;DHT22;13798;48.858;9.092;2023-09-07T15:21:35;947.30;1971.20
26021;DHT22;13798;48.858;9.092;2023-09-07T15:24:00;922.20;1971.20
26021;DHT22;13798;48.858;9.092;2023-09-07T15:26:26;947.40;1971.20
26021;DHT22;13798;48.858;9.092;2023-09-07T15:28:51;922.30;1996.80
26021;DHT22;13798;48.858;9.092;2023-09-07T15:31:17;896.70;2022.40
26021;DHT22;13798;48.858;9.092;2023-09-07T15:33:42;896.70;2022.40
26021;DHT22;13798;48.858;9.092;2023-09-07T15:36:08;921.80;2022.40
26021;DHT22;13798;48.858;9.092;2023-09-07T15:38:34;921.70;2048.00
26021;DHT22;13798;48.858;9.092;2023-09-07T15:40:59;896.40;2022.40
26021;DHT22;13798;48.858;9.092;2023-09-07T15:43:32;896.00;2048.00
26021;DHT22;13798;48.858;9.092;2023-09-07T15:45:58;871.20;2048.00
26021;DHT22;13798;48.858;9.092;2023-09-07T15:48:25;896.20;2048.00
26021;DHT22;13798;48.858;9.092;2023-09-07T15:50:52;896.20;2022.40
26021;DHT22;13798;48.858;9.092;2023-09-07T15:53:17;896.00;2022.40
26021;DHT22;13798;48.858;9.092;2023-09-07T15:55:43;871.30;2022.40
26021;DHT22;13798;48.858;9.092;2023-09-07T15:58:08;870.40;2048.00
26021;DHT22;13798;48.858;9.092;2023-09-07T16:00:34;845.40;2124.80
26021;DHT22;13798;48.858;9.092;2023-09-07T16:02:59;845.60;2099.20
26021;DHT22;13798;48.858;9.092;2023-09-07T16:05:25;870.40;2099.20
26021;DHT22;13798;48.858;9.092;2023-09-07T16:07:51;870.50;2073.60
26021;DHT22;13798;48.858;9.092;2023-09-07T16:10:17;870.40;2073.60
26021;DHT22;13798;48.858;9.092;2023-09-07T16:12:43;845.50;2073.60
26021;DHT22;13798;48.858;9.092;2023-09-07T16:15:09;845.40;2073.60
26021;DHT22;13798;48.858;9.092;2023-09-07T16:17:34;844.80;2150.40
26021;DHT22;13798;48.858;9.092;2023-09-07T16:20:00;845.20;2099.20
26021;DHT22;13798;48.858;9.092;2023-09-07T16:22:26;820.10;2099.20
26021;DHT22;13798;48.858;9.092;2023-09-07T16:24:52;820.10;2099.20
26021;DHT22;13798;48.858;9.092;2023-09-07T16:27:18;819.80;2150.40
26021;DHT22;13798;48.858;9.092;2023-09-07T16:29:43;819.90;2124.80
26021;DHT22;13798;48.858;9.092;2023-09-07T16:32:10;819.30;2150.40
26021;DHT22;13798;48.858;9.092;2023-09-07T16:34:35;819.50;2150.40
26021;DHT22;13798;48.858;9.092;2023-09-07T16:37:01;819.40;2150.40
26021;DHT22;13798;48.858;9.092;2023-09-07T16:39:27;794.50;2176.00
26021;DHT22;13798;48.858;9.092;2023-09-07T16:41:52;794.50;2176.00
26021;DHT22;13798;48.858;9.092;2023-09-07T16:44:18;794.00;2176.00
26021;DHT22;13798;48.858;9.092;2023-09-07T16:46:44;793.60;2227.20
26021;DHT22;13798;48.858;9.092;2023-09-07T16:49:10;768.50;2252.80
26021;DHT22;13798;48.858;9.092;2023-09-07T16:51:35;768.40;2278.40
26021;DHT22;13798;48.858;9.092;2023-09-07T16:54:01;768.00;2278.40
26021;DHT22;13798;48.858;9.092;2023-09-07T16:56:26;743.20;2278.40
26021;DHT22;13798;48.858;9.092;2023-09-07T16:58:53;742.90;2329.60
26021;DHT22;13798;48.858;9.092;2023-09-07T17:01:19;717.60;2329.60
26021;DHT22;13798;48.858;9.092;2023-09-07T17:03:45;717.60;2380.80
26021;DHT22;13798;48.858;9.092;2023-09-07T17:06:10;717.60;2355.20
26021;DHT22;13798;48.858;9.092;2023-09-07T17:08:36;717.50;2380.80
26021;DHT22;13798;48.858;9.092;2023-09-07T17:11:01;717.20;2380.80
26021;DHT22;13798;48.858;9.092;2023-09-07T17:13:27;717.20;2380.80
26021;DHT22;13798;48.858;9.092;2023-09-07T17:15:53;717.10;2432.00
26021;DHT22;13798;48.858;9.092;2023-09-07T17:18:18;716.80;2432.00
26021;DHT22;13798;48.858;9.092;2023-09-07T17:20:44;716.80;2432.00
26021;DHT22;13798;48.858;9.092;2023-09-07T17:23:09;691.80;2406.40
26021;DHT22;13798;48.858;9.092;2023-09-07T17:25:35;691.70;2432.00
26021;DHT22;13798;48.858;9.092;2023-09-07T17:28:02;691.60;2432.00
26021;DHT22;13798;48.858;9.092;2023-09-07T17:30:28;691.50;2432.00
26021;DHT22;13798;48.858;9.092;2023-09-07T17:32:54;691.50;2432.00
26021;DHT22;13798;48.858;9.092;2023-09-07T17:35:23;691.40;2432.00
26021;DHT22;13798;48.858;9.092;2023-09-07T17:37:49;666.50;2432.00
26021;DHT22;13798;48.858;9.092;2023-09-07T17:40:15;666.40;2432.00
26021;DHT22;13798;48.858;9.092;2023-09-07T17:42:42;666.30;2432.00
26021;DHT22;13798;48.858;9.092;2023-09-07T17:45:08;666.00;2432.00
26021;DHT22;13798;48.858;9.092;2023-09-07T17:47:33;665.90;2432.00
26021;DHT22;13798;48.858;9.092;2023-09-07T17:49:59;665.60;2432.00
26021;DHT22;13798;48.858;9.092;2023-09-07T17:52:25;665.80;2432.00
26021;DHT22;13798;48.858;9.092;2023-09-07T17:54:50;640.90;2432.00
26021;DHT22;13798;48.858;9.092;2023-09-07T17:57:16;640.70;2432.00
26021;DHT22;13798;48.858;9.092;2023-09-07T17:59:42;640.50;2432.00
26021;DHT22;13798;48.858;9.092;2023-09-07T18:02:25;640.40;2432.00
26021;DHT22;13798;48.858;9.092;2023-09-07T18:04:58;640.30;2432.00
26021;DHT22;13798;48.858;9.092;2023-09-07T18:07:24;640.00;2432.00
26021;DHT22;13798;48.858;9.092;2023-09-07T18:09:50;640.10;2432.00
26021;DHT22;13798;48.858;9.092;2023-09-07T18:12:18;615.10;2432.00
26021;DHT22;13798;48.858;9.092;2023-09-07T18:14:45;615.20;2432.00
26021;DHT22;13798;48.858;9.092;2023-09-07T18:17:12;615.10;2432.00
26021;DHT22;13798;48.858;9.092;2023-09-07T18:19:38;614.90;2432.00
26021;DHT22;13798;48.858;9.092;2023-09-07T18:22:04;614.70;2432.00
26021;DHT22;13798;48.858;9.092;2023-09-07T18:24:31;614.60;2432.00
26021;DHT22;13798;48.858;9.092;2023-09-07T18:26:56;614.40;2432.00
26021;DHT22;13798;48.858;9.092;2023-09-07T18:29:22;614.40;2432.00
26021;DHT22;13798;48.858;9.092;2023-09-07T18:31:47;589.60;2432.00
26021;DHT22;13798;48.858;9.092;2023-09-07T18:34:13;589.70;2432.00
26021;DHT22;13798;48.858;9.092;2023-09-07T18:36:38;589.70;2432.00
26021;DHT22;13798;48.858;9.092;2023-09-07T18:39:04;589.50;2432.00
26021;DHT22;13798;48.858;9.092;2023-09-07T18:41:30;589.40;2432.00
26021;DHT22;13798;48.858;9.092;2023-09-07T18:43:56;589.20;2432.00
26021;DHT22;13798;48.858;9.092;2023-09-07T18:46:21;589.20;2432.00
26021;DHT22;13798;48.858;9.092;2023-09-07T18:48:47;589.10;2432.00
26021;DHT22;13798;48.858;9.092;2023-09-07T18:51:12;588.90;2432.00
26021;DHT22;13798;48.858;9.092;2023-09-07T18:53:38;588.80;2432.00
26021;DHT22;13798;48.858;9.092;2023-09-07T18:56:07;564.10;2432.00
26021;DHT22;13798;48.858;9.092;2023-09-07T18:58:33;563.80;2432.00
26021;DHT22;13798;48.858;9.092;2023-09-07T19:01:05;563.80;2432.00
26021;DHT22;13798;48.858;9.092;2023-09-07T19:03:35;563.60;2432.00
26021;DHT22;13798;48.858;9.092;2023-09-07T19:06:00;563.70;2432.00
26021;DHT22;13798;48.858;9.092;2023-09-07T19:08:26;563.60;2432.00
26021;DHT22;13798;48.858;9.092;2023-09-07T19:10:51;563.50;2432.00
26021;DHT22;13798;48.858;9.092;2023-09-07T19:13:17;563.40;2432.00
26021;DHT22;13798;48.858;9.092;2023-09-07T19:15:42;538.40;2406.40
26021;DHT22;13798;48.858;9.092;2023-09-07T19:18:08;563.30;2432.00
26021;DHT22;13798;48.858;9.092;2023-09-07T19:20:33;538.50;2406.40
26021;DHT22;13798;48.858;9.092;2023-09-07T19:22:59;538.40;2406.40
26021;DHT22;13798;48.858;9.092;2023-09-07T19:25:24;538.30;2406.40
26021;DHT22;13798;48.858;9.092;2023-09-07T19:27:50;538.40;2406.40
26021;DHT22;13798;48.858;9.092;2023-09-07T19:30:15;538.10;2406.40
26021;DHT22;13798;48.858;9.092;2023-09-07T19:32:41;538.10;2406.40
26021;DHT22;13798;48.858;9.092;2023-09-07T19:35:07;538.10;2406.40
26021;DHT22;13798;48.858;9.092;2023-09-07T19:37:32;538.10;2406.40
26021;DHT22;13798;48.858;9.092;2023-09-07T19:39:58;538.00;2406.40
26021;DHT22;13798;48.858;9.092;2023-09-07T19:42:24;537.90;2406.40
26021;DHT22;13798;48.858;9.092;2023-09-07T19:44:50;537.80;2406.40
26021;DHT22;13798;48.858;9.092;2023-09-07T19:47:15;537.60;2406.40
26021;DHT22;13798;48.858;9.092;2023-09-07T19:49:42;537.70;2406.40
26021;DHT22;13798;48.858;9.092;2023-09-07T19:52:08;537.70;2406.40
26021;DHT22;13798;48.858;9.092;2023-09-07T19:54:33;512.70;2380.80
26021;DHT22;13798;48.858;9.092;2023-09-07T19:56:59;512.70;2380.80
26021;DHT22;13798;48.858;9.092;2023-09-07T19:59:24;512.70;2380.80
26021;DHT22;13798;48.858;9.092;2023-09-07T20:01:56;512.70;2380.80
26021;DHT22;13798;48.858;9.092;2023-09-07T20:04:23;512.50;2380.80
26021;DHT22;13798;48.858;9.092;2023-09-07T20:06:49;512.50;2380.80
26021;DHT22;13798;48.858;9.092;2023-09-07T20:09:15;512.30;2380.80
26021;DHT22;13798;48.858;9.092;2023-09-07T20:11:44;512.30;2380.80
26021;DHT22;13798;48.858;9.092;2023-09-07T20:14:14;512.30;2380.80
26021;DHT22;13798;48.858;9.092;2023-09-07T20:16:40;512.30;2380.80
26021;DHT22;13798;48.858;9.092;2023-09-07T20:19:06;512.30;2380.80
26021;DHT22;13798;48.858;9.092;2023-09-07T20:21:31;512.30;2380.80
26021;DHT22;13798;48.858;9.092;2023-09-07T20:23:57;512.10;2380.80
26021;DHT22;13798;48.858;9.092;2023-09-07T20:26:23;512.10;2380.80
26021;DHT22;13798;48.858;9.092;2023-09-07T20:28:48;512.00;2380.80
26021;DHT22;13798;48.858;9.092;2023-09-07T20:31:15;487.30;2380.80
26021;DHT22;13798;48.858;9.092;2023-09-07T20:33:40;487.20;2380.80
26021;DHT22;13798;48.858;9.092;2023-09-07T20:36:06;487.00;2380.80
26021;DHT22;13798;48.858;9.092;2023-09-07T20:38:33;487.10;2380.80
26021;DHT22;13798;48.858;9.092;2023-09-07T20:40:58;487.00;2380.80
26021;DHT22;13798;48.858;9.092;2023-09-07T20:43:25;487.10;2380.80
26021;DHT22;13798;48.858;9.092;2023-09-07T20:45:52;487.00;2380.80
26021;DHT22;13798;48.858;9.092;2023-09-07T20:48:18;486.90;2380.80
26021;DHT22;13798;48.858;9.092;2023-09-07T20:50:45;486.80;2380.80
26021;DHT22;13798;48.858;9.092;2023-09-07T20:53:10;486.70;2380.80
26021;DHT22;13798;48.858;9.092;2023-09-07T20:55:36;486.70;2380.80
26021;DHT22;13798;48.858;9.092;2023-09-07T20:58:02;486.60;2380.80
26021;DHT22;13798;48.858;9.092;2023-09-07T21:00:28;486.60;2380.80